Time;durP1;ratioP1;P1;durP2;ratioP2;P2;SDS_P1;SDS_P2;PMS_P1;PMS_P2;Temp;Humidity;BMP_temperature;BMP_pressure;BME280_temperature;BME280_humidity;BME280_pressure;Samples;Min_cycle;Max_cycle;Signal;HPM_P1;HPM_P2
2022/08/06 00:02:23;;;;;;;1.00;1.00;;;;;;;12.34;66.85;102498.44;4977560;28;20442;-82
2022/08/06 00:04:48;;;;;;;0.77;0.77;;;;;;;12.29;66.97;102502.72;4977125;28;20140;-82
2022/08/06 00:07:13;;;;;;;1.40;1.20;;;;;;;12.25;66.78;102495.78;4977393;28;20015;-82
2022/08/06 00:09:39;;;;;;;1.80;0.90;;;;;;;12.20;67.06;102494.03;4977235;28;20475;-82
2022/08/06 00:12:04;;;;;;;0.67;0.63;;;;;;;12.19;67.15;102496.63;4976511;28;20476;-82
2022/08/06 00:14:31;;;;;;;0.70;0.70;;;;;;;12.18;67.28;102505.31;4977054;28;20081;-82
2022/08/06 00:16:57;;;;;;;0.77;0.68;;;;;;;12.13;67.57;102507.00;4977369;28;20117;-82
2022/08/06 00:19:35;;;;;;;1.15;0.80;;;;;;;12.10;67.52;102510.47;4976769;28;20114;-82
2022/08/06 00:22:00;;;;;;;0.60;0.60;;;;;;;12.05;67.05;102506.97;4976855;28;20030;-82
2022/08/06 00:24:25;;;;;;;0.80;0.80;;;;;;;11.99;67.50;102513.00;4977608;28;20022;-82
2022/08/06 00:26:54;;;;;;;0.80;0.80;;;;;;;11.96;67.54;102517.28;4976420;28;20457;-82
2022/08/06 00:29:19;;;;;;;0.98;0.90;;;;;;;11.93;67.63;102517.28;4977359;28;20042;-82
2022/08/06 00:31:45;;;;;;;0.90;0.90;;;;;;;11.89;67.71;102514.66;4977247;28;20018;-82
2022/08/06 00:34:16;;;;;;;0.83;0.80;;;;;;;11.88;67.76;102519.84;4976165;28;20027;-82
2022/08/06 00:36:41;;;;;;;0.95;0.82;;;;;;;11.85;67.55;102528.50;4977407;28;20371;-82
2022/08/06 00:39:07;;;;;;;0.70;0.70;;;;;;;11.83;68.08;102530.22;4976800;28;20027;-82
2022/08/06 00:41:39;;;;;;;1.00;0.80;;;;;;;11.79;68.04;102536.28;4976455;28;20026;-82
2022/08/06 00:44:04;;;;;;;0.88;0.88;;;;;;;11.76;68.04;102525.84;4976765;28;20490;-82
2022/08/06 00:46:30;;;;;;;2.27;1.00;;;;;;;11.73;68.41;102528.41;4977422;28;20031;-82
2022/08/06 00:48:55;;;;;;;0.77;0.77;;;;;;;11.69;68.41;102531.88;4976444;28;20030;-81
2022/08/06 00:51:22;;;;;;;0.60;0.60;;;;;;;11.65;68.44;102530.94;4976855;28;20050;-82
2022/08/06 00:53:47;;;;;;;0.90;0.90;;;;;;;11.62;68.66;102533.56;4977117;28;20027;-82
2022/08/06 00:56:12;;;;;;;1.07;1.07;;;;;;;11.61;68.85;102542.22;4975916;28;20460;-82
2022/08/06 00:58:38;;;;;;;1.33;1.00;;;;;;;11.58;68.71;102537.88;4976780;28;20034;-82
2022/08/06 01:01:03;;;;;;;2.43;1.20;;;;;;;11.55;68.67;102540.44;4975916;28;20026;-82
2022/08/06 01:03:29;;;;;;;1.40;1.30;;;;;;;11.55;68.90;102542.16;4977053;28;20029;-82
2022/08/06 01:05:55;;;;;;;1.70;1.27;;;;;;;11.55;68.87;102543.03;4975305;28;20030;-82
2022/08/06 01:08:20;;;;;;;2.03;1.33;;;;;;;11.57;68.73;102541.31;4976227;28;20019;-82
2022/08/06 01:10:45;;;;;;;1.27;1.17;;;;;;;11.56;69.09;102547.38;4976760;28;20027;-81
2022/08/06 01:13:11;;;;;;;1.30;1.20;;;;;;;11.53;68.93;102549.94;4976577;28;20220;-82
2022/08/06 01:15:39;;;;;;;1.47;1.23;;;;;;;11.53;69.02;102562.94;4976015;28;20475;-82
2022/08/06 01:18:09;;;;;;;0.90;0.90;;;;;;;11.52;69.23;102562.94;4976421;28;20023;-82
2022/08/06 01:20:43;;;;;;;1.73;1.20;;;;;;;11.47;69.41;102568.13;4976552;28;20031;-82
2022/08/06 01:23:33;;;;;;;0.70;0.70;;;;;;;11.45;69.50;102567.22;4975529;28;20835;-81
2022/08/06 01:26:31;;;;;;;0.80;0.80;;;;;;;11.41;69.51;102563.72;4975851;28;20495;-82
2022/08/06 01:29:23;;;;;;;1.00;1.00;;;;;;;11.38;69.67;102568.00;4976084;28;20030;-82
2022/08/06 01:32:00;;;;;;;1.02;0.80;;;;;;;11.35;70.05;102565.41;4976253;28;20022;-82
2022/08/06 01:34:33;;;;;;;1.00;1.00;;;;;;;11.30;69.56;102562.75;4972755;28;20070;-82
2022/08/06 01:37:08;;;;;;;1.08;1.00;;;;;;;11.28;69.72;102569.66;4975377;28;20035;-81
2022/08/06 01:39:37;;;;;;;1.13;1.02;;;;;;;11.22;69.58;102569.59;4975761;28;20062;-82
2022/08/06 01:42:05;;;;;;;1.60;1.30;;;;;;;11.19;70.16;102567.00;4971437;28;20067;-82
2022/08/06 01:44:43;;;;;;;1.00;1.00;;;;;;;11.18;70.07;102568.69;4955856;29;20027;-82
2022/08/06 01:47:11;;;;;;;1.45;1.10;;;;;;;11.18;70.03;102567.84;4959713;28;20081;-82
2022/08/06 01:49:40;;;;;;;1.15;1.05;;;;;;;11.16;69.90;102564.34;4975389;28;20031;-82
2022/08/06 01:52:07;;;;;;;1.40;1.30;;;;;;;11.13;70.13;102571.25;4974610;28;20063;-82
2022/08/06 01:54:38;;;;;;;1.38;1.00;;;;;;;11.13;69.96;102575.59;4975689;28;20019;-82
2022/08/06 01:57:06;;;;;;;1.20;1.10;;;;;;;11.11;70.41;102578.16;4970221;28;20031;-81
2022/08/06 01:59:34;;;;;;;1.27;1.17;;;;;;;11.10;70.30;102572.94;4965383;28;20057;-82
2022/08/06 02:02:05;;;;;;;1.77;1.00;;;;;;;11.10;70.59;102562.56;4974744;28;20038;-82
2022/08/06 02:04:34;;;;;;;1.35;1.25;;;;;;;11.11;70.30;102569.50;4975442;28;20077;-82
2022/08/06 02:07:03;;;;;;;1.50;1.40;;;;;;;11.10;70.17;102565.16;4975263;28;20022;-82
2022/08/06 02:09:30;;;;;;;1.27;1.20;;;;;;;11.10;70.46;102560.81;4975499;28;20038;-82
2022/08/06 02:12:01;;;;;;;;;;;;;;;11.10;70.54;102570.34;4975018;28;20054;-82
2022/08/06 02:14:30;;;;;;;1.30;1.20;;;;;;;11.09;70.72;102572.06;4975297;28;19925;-82
2022/08/06 02:16:58;;;;;;;1.30;1.20;;;;;;;11.04;70.63;102576.38;4974184;28;20031;-82
2022/08/06 02:19:26;;;;;;;1.50;1.40;;;;;;;11.02;70.49;102570.28;4974269;28;20038;-82
2022/08/06 02:21:53;;;;;;;2.63;1.50;;;;;;;11.01;70.59;102578.06;4975091;28;20038;-82
2022/08/06 02:24:21;;;;;;;1.38;1.27;;;;;;;11.02;70.56;102578.06;4974922;28;20525;-81
2022/08/06 02:26:47;;;;;;;1.55;1.45;;;;;;;11.03;70.78;102579.81;4974769;28;20031;-82
2022/08/06 02:29:16;;;;;;;1.20;1.10;;;;;;;11.02;70.91;102579.81;4974520;28;20493;-81
2022/08/06 02:31:43;;;;;;;1.63;1.13;;;;;;;11.01;70.84;102585.84;4981875;23;20463;-82
2022/08/06 02:34:09;;;;;;;2.25;1.23;;;;;;;10.97;71.15;102579.75;4974236;28;20030;-82
2022/08/06 02:36:41;;;;;;;0.93;0.93;;;;;;;10.91;71.05;102577.06;4975088;28;20583;-82
2022/08/06 02:39:10;;;;;;;1.20;1.10;;;;;;;10.88;71.22;102577.03;4974776;28;20379;-82
2022/08/06 02:41:41;;;;;;;1.05;0.95;;;;;;;10.83;71.30;102576.97;4974353;28;20040;-82
2022/08/06 02:44:18;;;;;;;1.13;1.10;;;;;;;10.77;71.35;102577.78;4974777;28;20372;-82
2022/08/06 02:46:49;;;;;;;0.90;0.90;;;;;;;10.73;71.87;102573.44;4974187;28;20038;-82
2022/08/06 02:49:21;;;;;;;0.80;0.80;;;;;;;10.67;71.52;102578.53;4965497;28;20047;-82
2022/08/06 02:52:17;;;;;;;1.30;1.20;;;;;;;10.66;71.60;102579.38;4955725;29;20038;-82
2022/08/06 02:54:47;;;;;;;;;;;;;;;10.61;71.52;102581.06;4955139;29;20046;-82
2022/08/06 02:57:20;;;;;;;0.98;0.98;;;;;;;10.55;71.91;102576.66;4955912;28;20016;-81
2022/08/06 02:59:48;;;;;;;1.80;1.25;;;;;;;10.52;71.63;102580.94;4955624;29;20070;-82
2022/08/06 03:02:16;;;;;;;1.10;1.10;;;;;;;10.49;71.65;102581.75;4954821;29;20098;-82
2022/08/06 03:04:47;;;;;;;1.20;1.20;;;;;;;10.46;71.88;102580.00;4955258;29;20031;-82
2022/08/06 03:07:13;;;;;;;1.02;0.98;;;;;;;10.47;71.80;102586.09;4954854;29;20035;-82
2022/08/06 03:09:44;;;;;;;1.00;1.00;;;;;;;10.47;72.04;102578.31;4954406;29;20086;-82
2022/08/06 03:12:12;;;;;;;0.90;0.90;;;;;;;10.45;72.18;102587.78;4954943;29;20078;-82
2022/08/06 03:14:39;;;;;;;0.90;0.90;;;;;;;10.44;71.89;102589.50;4954585;29;20043;-82
2022/08/06 03:17:07;;;;;;;1.65;0.98;;;;;;;10.44;72.08;102586.03;4954913;29;20142;-82
2022/08/06 03:19:34;;;;;;;0.90;0.90;;;;;;;10.42;72.09;102586.00;4954968;29;20031;-82
2022/08/06 03:22:01;;;;;;;1.25;1.00;;;;;;;10.42;72.06;102590.34;4965979;28;20422;-82
2022/08/06 03:24:27;;;;;;;0.95;0.93;;;;;;;10.42;72.07;102592.94;4974512;28;20027;-82
2022/08/06 03:26:57;;;;;;;1.00;1.00;;;;;;;10.40;72.25;102589.44;4973371;28;20034;-82
2022/08/06 03:29:25;;;;;;;0.90;0.90;;;;;;;10.39;71.94;102587.69;4973197;28;20468;-82
2022/08/06 03:31:50;;;;;;;1.02;1.00;;;;;;;10.38;72.48;102588.53;4974042;28;20455;-82
2022/08/06 03:34:16;;;;;;;0.90;0.90;;;;;;;10.37;72.30;102598.03;4974344;28;20066;-82
2022/08/06 03:36:42;;;;;;;1.07;1.00;;;;;;;10.35;72.40;102598.03;4973820;28;20387;-82
2022/08/06 03:39:10;;;;;;;2.17;1.10;;;;;;;10.30;72.21;102594.47;4973562;28;20459;-82
2022/08/06 03:41:38;;;;;;;1.38;1.25;;;;;;;10.30;72.33;102591.03;4974248;28;20031;-82
2022/08/06 03:44:04;;;;;;;1.10;0.93;;;;;;;10.29;72.50;102595.31;4973005;28;20117;-82
2022/08/06 03:46:46;;;;;;;1.03;1.00;;;;;;;10.30;72.73;102602.25;4973865;28;20110;-82
2022/08/06 03:49:25;;;;;;;1.50;1.35;;;;;;;10.29;72.54;102597.91;4973900;28;20109;-82
2022/08/06 03:51:54;;;;;;;1.17;1.02;;;;;;;10.29;72.56;102610.88;4959751;28;20086;-81
2022/08/06 03:54:25;;;;;;;1.08;1.02;;;;;;;10.26;72.50;102609.97;4954888;29;20380;-82
2022/08/06 03:56:52;;;;;;;1.15;1.15;;;;;;;10.21;72.33;102612.50;4953810;29;20099;-81
2022/08/06 03:59:21;;;;;;;0.90;0.90;;;;;;;10.17;72.71;102614.19;4954197;29;20031;-82
2022/08/06 04:01:48;;;;;;;1.15;1.10;;;;;;;10.18;72.54;102626.31;4954726;29;20077;-82
2022/08/06 04:04:15;;;;;;;1.38;1.27;;;;;;;10.14;72.54;102626.22;4953755;29;20039;-82
2022/08/06 04:06:43;;;;;;;1.30;1.17;;;;;;;10.10;72.58;102625.31;4954785;29;20035;-82
2022/08/06 04:09:09;;;;;;;2.22;1.40;;;;;;;10.07;72.80;102627.88;4954485;29;20519;-82
2022/08/06 04:11:35;;;;;;;2.00;1.30;;;;;;;10.03;72.72;102626.06;4954025;29;20041;-82
2022/08/06 04:14:01;;;;;;;1.00;1.00;;;;;;;10.01;72.96;102625.16;4954202;29;20031;-82
2022/08/06 04:16:27;;;;;;;1.00;1.00;;;;;;;10.02;72.98;102625.19;4965010;28;20031;-81
2022/08/06 04:18:55;;;;;;;1.30;1.20;;;;;;;10.04;72.73;102625.22;4972511;28;20030;-82
2022/08/06 04:21:23;;;;;;;1.27;1.15;;;;;;;10.04;72.85;102638.19;4973235;28;20027;-82
2022/08/06 04:23:50;;;;;;;1.10;1.00;;;;;;;10.05;72.98;102638.22;4973543;28;20015;-82
2022/08/06 04:26:19;;;;;;;1.13;1.05;;;;;;;10.04;73.09;102633.00;4972856;28;20356;-81
2022/08/06 04:28:48;;;;;;;1.00;1.00;;;;;;;10.05;73.11;102637.34;4973371;28;20031;-82
2022/08/06 04:31:15;;;;;;;1.35;1.00;;;;;;;10.02;72.85;102637.28;4973206;28;20046;-81
2022/08/06 04:33:41;;;;;;;1.05;0.93;;;;;;;9.99;73.21;102643.31;4973080;28;20023;-81
2022/08/06 04:36:08;;;;;;;1.10;1.00;;;;;;;10.01;73.29;102644.22;4980207;23;20058;-81
2022/08/06 04:38:34;;;;;;;1.10;1.00;;;;;;;10.03;73.09;102645.09;4973514;28;20027;-82
2022/08/06 04:41:01;;;;;;;1.20;1.10;;;;;;;10.08;73.18;102650.34;4974791;28;20062;-82
2022/08/06 04:43:26;;;;;;;1.10;1.10;;;;;;;10.08;73.39;102645.16;4977244;28;20054;-82
2022/08/06 04:45:52;;;;;;;1.20;1.10;;;;;;;10.08;73.33;102647.75;4976697;28;20023;-81
2022/08/06 04:48:18;;;;;;;2.27;1.53;;;;;;;10.09;73.18;102648.66;4977239;28;20026;-82
2022/08/06 04:50:44;;;;;;;0.88;0.88;;;;;;;10.09;73.27;102656.44;4977230;28;20279;-81
2022/08/06 04:53:10;;;;;;;1.03;1.03;;;;;;;10.11;73.25;102652.13;4975952;28;20031;-81
2022/08/06 04:55:36;;;;;;;1.27;1.08;;;;;;;10.12;73.26;102666.88;4977055;28;20019;-81
2022/08/06 04:58:04;;;;;;;0.90;0.90;;;;;;;10.10;73.47;102660.78;4976876;28;20114;-82
2022/08/06 05:00:31;;;;;;;0.88;0.88;;;;;;;10.12;73.30;102665.13;4975896;28;20039;-81
2022/08/06 05:02:56;;;;;;;0.90;0.90;;;;;;;10.15;73.38;102664.28;4976688;28;20027;-82
2022/08/06 05:05:23;;;;;;;0.97;0.97;;;;;;;10.18;73.35;102661.75;4976981;28;20081;-82
2022/08/06 05:07:54;;;;;;;1.40;1.23;;;;;;;10.22;72.99;102660.06;4975531;28;20101;-82
2022/08/06 05:10:21;;;;;;;2.58;1.10;;;;;;;10.26;73.33;102661.88;4976750;28;20375;-81
2022/08/06 05:12:54;;;;;;;1.48;1.00;;;;;;;10.28;73.22;102658.44;4976489;28;20023;-81
2022/08/06 05:15:29;;;;;;;1.33;1.20;;;;;;;10.34;73.31;102660.25;4993687;28;20069;-81
2022/08/06 05:17:56;;;;;;;1.40;1.30;;;;;;;10.41;73.70;102669.94;4995534;28;20491;-80
2022/08/06 05:20:21;;;;;;;1.20;1.10;;;;;;;10.46;73.38;102670.00;4992568;28;20113;-80
2022/08/06 05:22:52;;;;;;;1.27;1.20;;;;;;;10.50;73.27;102674.38;4975223;28;20117;-79
2022/08/06 05:25:18;;;;;;;1.25;1.10;;;;;;;10.54;73.17;102678.75;4975283;28;20380;-82
2022/08/06 05:27:43;;;;;;;1.60;1.50;;;;;;;10.57;73.10;102675.34;4976792;28;20031;-82
2022/08/06 05:30:09;;;;;;;1.30;1.20;;;;;;;10.60;73.40;102681.44;4975568;28;20035;-81
2022/08/06 05:32:42;;;;;;;2.30;1.10;;;;;;;10.65;73.57;102682.38;4976238;28;20033;-81
2022/08/06 05:35:08;;;;;;;1.20;1.20;;;;;;;10.70;73.69;102684.16;4975712;28;20043;-81
2022/08/06 05:37:33;;;;;;;1.20;1.20;;;;;;;10.75;73.60;102690.28;4983499;28;20030;-80
2022/08/06 05:39:58;;;;;;;1.47;1.33;;;;;;;10.81;73.53;102690.38;4995196;28;20026;-80
2022/08/06 05:42:24;;;;;;;1.30;1.20;;;;;;;10.87;73.96;102692.16;4994915;28;20109;-80
2022/08/06 05:44:49;;;;;;;1.00;1.00;;;;;;;10.91;74.31;102696.56;4995434;28;20026;-80
2022/08/06 05:47:19;;;;;;;1.00;1.00;;;;;;;10.94;73.94;102687.09;4995327;28;20023;-80
2022/08/06 05:49:48;;;;;;;1.30;1.20;;;;;;;11.03;74.28;102690.66;4993232;28;20030;-80
2022/08/06 05:52:26;;;;;;;1.00;1.00;;;;;;;11.11;74.45;102694.22;4995121;28;20022;-80
2022/08/06 05:55:05;;;;;;;1.02;1.02;;;;;;;11.22;74.79;102689.16;4994897;28;20080;-80
2022/08/06 05:57:41;;;;;;;1.05;1.00;;;;;;;11.34;75.11;102688.44;4994724;28;20037;-80
2022/08/06 06:00:10;;;;;;;1.00;1.00;;;;;;;11.45;74.61;102697.22;4994941;28;20035;-80
2022/08/06 06:02:40;;;;;;;0.90;0.90;;;;;;;11.52;74.77;102693.81;4995179;28;20176;-80
2022/08/06 06:05:06;;;;;;;1.00;1.00;;;;;;;11.63;74.92;102693.94;4994239;28;20022;-80
2022/08/06 06:07:32;;;;;;;1.02;0.90;;;;;;;11.72;74.55;102703.53;4993231;28;20069;-80
2022/08/06 06:09:58;;;;;;;0.73;0.73;;;;;;;11.80;75.10;102706.22;4994214;28;20046;-80
2022/08/06 06:12:24;;;;;;;0.70;0.70;;;;;;;11.86;74.85;102704.56;4994478;28;20607;-80
2022/08/06 06:14:50;;;;;;;1.05;1.00;;;;;;;11.95;74.60;102708.97;4995234;28;20379;-80
2022/08/06 06:17:40;;;;;;;0.85;0.85;;;;;;;12.06;74.76;102711.69;4994858;28;20463;-80
2022/08/06 06:20:06;;;;;;;0.90;0.90;;;;;;;12.16;75.23;102710.03;4994610;28;20046;-80
2022/08/06 06:22:44;;;;;;;0.83;0.83;;;;;;;12.26;75.12;102711.00;4993045;28;20034;-81
2022/08/06 06:25:19;;;;;;;0.88;0.70;;;;;;;12.35;74.88;102711.91;4994155;28;20068;-82
2022/08/06 06:27:52;;;;;;;0.60;0.60;;;;;;;12.43;75.41;102706.78;4994531;28;20054;-80
2022/08/06 06:30:44;;;;;;;0.57;0.57;;;;;;;12.54;75.31;102709.47;4994955;28;20106;-80
2022/08/06 06:33:20;;;;;;;0.40;0.40;;;;;;;12.63;75.95;102703.41;4993821;28;20031;-80
2022/08/06 06:35:57;;;;;;;0.75;0.55;;;;;;;12.74;75.03;102714.78;4994654;28;20038;-84
2022/08/06 06:38:22;;;;;;;;;;;;;;;12.84;75.26;102715.69;4994546;28;20406;-84
2022/08/06 06:40:57;;;;;;;0.73;0.70;;;;;;;12.95;74.69;102715.75;4993903;28;19921;-82
2022/08/06 06:43:40;;;;;;;0.75;0.75;;;;;;;13.08;74.99;102717.53;4994166;28;20027;-81
2022/08/06 06:46:17;;;;;;;0.80;0.57;;;;;;;13.64;76.24;102716.88;4993369;28;20402;-81
2022/08/06 06:48:48;;;;;;;0.40;0.40;;;;;;;15.63;75.86;102718.19;4994233;28;20066;-82
2022/08/06 06:51:24;;;;;;;0.35;0.35;;;;;;;18.05;72.75;102726.00;4994434;28;20109;-82
2022/08/06 06:53:51;;;;;;;1.98;0.90;;;;;;;20.60;61.15;102723.97;4993386;28;20376;-82
2022/08/06 06:56:20;;;;;;;2.10;1.60;;;;;;;22.54;54.11;102723.19;4994233;28;20030;-82
2022/08/06 06:58:52;;;;;;;2.83;1.52;;;;;;;23.91;57.94;102723.16;4994098;28;20030;-83
2022/08/06 07:01:18;;;;;;;2.60;1.90;;;;;;;25.09;49.42;102727.78;4992318;28;20023;-82
2022/08/06 07:03:45;;;;;;;;;;;;;;;25.62;52.74;102718.16;4993730;28;20081;-84
2022/08/06 07:06:12;;;;;;;1.60;1.30;;;;;;;26.00;50.69;102718.03;4993930;28;19914;-81
2022/08/06 07:08:46;;;;;;;1.40;1.20;;;;;;;26.10;46.77;102721.09;4975585;28;20141;-81
2022/08/06 07:11:19;;;;;;;2.08;1.30;;;;;;;25.70;47.05;102715.97;4993743;28;20062;-83
2022/08/06 07:13:46;;;;;;;3.67;1.95;;;;;;;24.73;42.50;102723.22;4993014;28;20030;-81
2022/08/06 07:16:14;;;;;;;1.95;1.42;;;;;;;23.46;43.65;102726.78;4993690;28;20034;-81
2022/08/06 07:18:41;;;;;;;4.18;1.70;;;;;;;21.99;47.41;102727.69;4993787;28;20018;-81
2022/08/06 07:21:07;;;;;;;2.33;1.60;;;;;;;20.98;52.23;102728.19;4992859;28;20064;-81
2022/08/06 07:23:33;;;;;;;1.37;1.20;;;;;;;20.51;54.70;102728.56;4993889;28;20026;-81
2022/08/06 07:26:00;;;;;;;0.80;0.80;;;;;;;20.24;55.39;102729.31;4975037;28;20304;-82
2022/08/06 07:28:27;;;;;;;1.65;1.20;;;;;;;19.85;53.72;102733.75;4973099;28;20031;-82
2022/08/06 07:30:53;;;;;;;3.60;1.20;;;;;;;19.52;56.48;102735.44;4974136;28;20023;-81
2022/08/06 07:33:19;;;;;;;;;;;;;;;19.36;56.52;102730.50;4963359;28;20387;-82
2022/08/06 07:35:46;;;;;;;1.48;0.98;;;;;;;19.20;55.95;102740.50;4970045;28;20001;-83
2022/08/06 07:38:15;;;;;;;0.68;0.68;;;;;;;19.16;58.03;102745.88;4974024;28;20086;-83
2022/08/06 07:40:44;;;;;;;0.60;0.60;;;;;;;19.17;59.91;102748.44;4974093;28;20038;-83
2022/08/06 07:43:17;;;;;;;1.13;0.60;;;;;;;19.30;59.49;102743.81;4973322;28;20069;-82
2022/08/06 07:45:42;;;;;;;1.85;0.85;;;;;;;19.37;59.74;102747.13;4973588;28;20034;-82
2022/08/06 07:48:11;;;;;;;0.50;0.50;;;;;;;19.39;60.15;102746.22;4973601;28;20416;-82
2022/08/06 07:50:39;;;;;;;0.75;0.70;;;;;;;19.45;57.62;102748.72;4973325;28;20031;-82
2022/08/06 07:53:05;;;;;;;2.55;0.75;;;;;;;19.43;59.48;102747.03;4973566;28;20093;-83
2022/08/06 07:55:32;;;;;;;1.25;0.90;;;;;;;19.44;55.19;102744.34;4973955;28;20027;-83
2022/08/06 07:58:00;;;;;;;2.70;1.00;;;;;;;19.21;55.90;102749.25;4973308;28;20038;-83
2022/08/06 08:00:26;;;;;;;1.15;0.80;;;;;;;19.11;58.14;102752.06;4974378;28;20120;-82
2022/08/06 08:08:24;;;;;;;1.42;0.82;;;;;;;18.98;54.38;102751.47;4974172;28;20487;-83
2022/08/06 08:10:53;;;;;;;1.58;0.90;;;;;;;18.96;56.76;102760.31;4972596;28;20054;-82
2022/08/06 08:13:20;;;;;;;0.75;0.75;;;;;;;19.05;55.61;102757.47;4972286;28;20027;-83
2022/08/06 08:15:47;;;;;;;2.47;0.80;;;;;;;19.08;56.83;102757.41;4956455;28;20031;-83
2022/08/06 08:18:12;;;;;;;1.05;0.70;;;;;;;19.24;57.68;102760.59;4957214;29;20019;-83
2022/08/06 08:20:41;;;;;;;1.70;0.73;;;;;;;19.46;55.32;102762.75;4958838;29;20031;-83
2022/08/06 08:23:08;;;;;;;2.40;1.20;;;;;;;19.28;52.92;102764.03;4958075;29;20114;-84
2022/08/06 08:25:34;;;;;;;3.53;1.20;;;;;;;19.01;52.96;102765.47;4957839;29;20042;-83
2022/08/06 08:27:59;;;;;;;2.80;1.00;;;;;;;18.92;53.47;102763.84;4958030;29;20019;-83
2022/08/06 08:30:25;;;;;;;1.77;1.20;;;;;;;18.85;55.10;102763.09;4957763;29;20031;-83
2022/08/06 08:32:50;;;;;;;0.90;0.70;;;;;;;18.79;56.26;102760.59;4957090;29;20027;-83
2022/08/06 08:35:15;;;;;;;0.80;0.60;;;;;;;18.80;56.49;102764.97;4957961;28;20521;-82
2022/08/06 08:37:41;;;;;;;0.80;0.63;;;;;;;18.93;56.47;102769.09;4958302;29;20126;-83
2022/08/06 08:40:07;;;;;;;1.35;0.60;;;;;;;19.21;55.78;102765.03;4956590;29;20042;-82
2022/08/06 08:42:45;;;;;;;0.52;0.52;;;;;;;19.54;55.55;102759.94;4959893;28;20488;-82
2022/08/06 08:45:12;;;;;;;0.30;0.20;;;;;;;19.64;54.60;102761.47;4955631;29;20519;-81
2022/08/06 08:47:38;;;;;;;;;;;;;;;19.56;55.38;102763.41;4957375;29;20384;-82
2022/08/06 08:50:05;;;;;;;0.55;0.40;;;;;;;19.40;55.19;102757.63;4957707;29;19918;-85
2022/08/06 08:52:34;;;;;;;0.10;0.10;;;;;;;19.24;56.33;102757.09;4957041;29;20026;-83
2022/08/06 08:55:05;;;;;;;1.17;0.40;;;;;;;19.27;56.52;102760.50;4957557;29;20030;-83
2022/08/06 08:57:32;;;;;;;0.30;0.30;;;;;;;19.47;56.27;102759.22;4957287;29;20030;-82
2022/08/06 09:00:00;;;;;;;0.13;0.13;;;;;;;19.74;55.56;102757.72;4956706;29;20042;-83
2022/08/06 09:02:27;;;;;;;1.30;0.73;;;;;;;19.84;50.33;102766.25;4968615;28;20041;-83
2022/08/06 09:04:53;;;;;;;1.15;0.73;;;;;;;19.75;51.93;102769.13;4976643;28;20471;-83
2022/08/06 09:07:19;;;;;;;0.80;0.68;;;;;;;19.80;52.09;102766.38;4976060;28;20022;-83
2022/08/06 09:09:45;;;;;;;0.60;0.57;;;;;;;19.67;52.03;102771.06;4976942;28;20031;-83
2022/08/06 09:12:10;;;;;;;0.63;0.63;;;;;;;19.45;52.97;102777.69;4976988;28;20031;-83
2022/08/06 09:14:36;;;;;;;0.83;0.30;;;;;;;19.29;53.54;102769.25;4975971;28;20058;-83
2022/08/06 09:17:02;;;;;;;0.27;0.27;;;;;;;19.32;54.67;102773.56;4976451;28;20345;-85
2022/08/06 09:19:29;;;;;;;0.40;0.40;;;;;;;19.52;52.78;102773.16;4976539;28;20372;-82
2022/08/06 09:21:58;;;;;;;0.95;0.75;;;;;;;19.62;50.74;102779.09;4975365;28;20575;-83
2022/08/06 09:24:24;;;;;;;1.33;0.63;;;;;;;19.44;50.80;102773.31;4976080;28;20030;-83
2022/08/06 09:27:10;;;;;;;0.75;0.50;;;;;;;19.28;51.56;102779.81;4976542;28;20019;-82
2022/08/06 09:29:36;;;;;;;0.47;0.47;;;;;;;19.17;52.06;102787.94;4982831;28;20534;-84
2022/08/06 09:32:06;;;;;;;0.52;0.52;;;;;;;19.06;47.77;102780.28;4994780;28;20034;-82
2022/08/06 09:34:37;;;;;;;1.27;0.73;;;;;;;19.02;47.78;102778.59;4994452;28;20491;-83
2022/08/06 09:37:02;;;;;;;4.20;0.90;;;;;;;19.10;47.17;102781.06;4995200;28;20033;-81
2022/08/06 09:39:43;;;;;;;0.90;0.73;;;;;;;19.34;50.60;102776.19;4995573;28;20027;-82
2022/08/06 09:42:10;;;;;;;0.80;0.80;;;;;;;19.73;48.68;102776.19;4994616;28;20034;-82
2022/08/06 09:44:35;;;;;;;1.42;0.93;;;;;;;19.97;48.03;102784.44;4995431;28;20029;-82
2022/08/06 09:47:00;;;;;;;1.83;0.70;;;;;;;19.95;48.03;102778.34;4994943;28;20030;-82
2022/08/06 09:49:27;;;;;;;1.10;0.67;;;;;;;20.09;48.80;102780.66;4994877;28;20097;-81
2022/08/06 09:52:13;;;;;;;1.23;0.60;;;;;;;20.02;46.99;102782.59;4986824;28;20035;-82
2022/08/06 09:54:39;;;;;;;0.50;0.50;;;;;;;19.94;49.16;102785.41;4974321;28;20023;-81
2022/08/06 09:57:04;;;;;;;0.30;0.30;;;;;;;20.08;49.80;102782.41;4975456;28;20038;-82
2022/08/06 09:59:42;;;;;;;0.93;0.60;;;;;;;20.24;47.02;102782.91;4974471;28;20074;-82
2022/08/06 10:02:15;;;;;;;0.30;0.30;;;;;;;20.32;50.00;102790.63;4964598;28;20121;-82
2022/08/06 10:04:41;;;;;;;0.50;0.40;;;;;;;20.29;45.36;102788.06;4973125;28;20502;-82
2022/08/06 10:07:07;;;;;;;0.38;0.28;;;;;;;20.44;46.56;102792.94;4975027;28;20035;-82
2022/08/06 10:09:33;;;;;;;1.08;0.40;;;;;;;20.69;45.19;102789.66;4974042;28;20553;-82
2022/08/06 10:11:59;;;;;;;0.43;0.43;;;;;;;20.94;46.16;102791.66;4975292;28;20113;-82
2022/08/06 10:14:33;;;;;;;1.20;0.65;;;;;;;21.12;45.00;102787.59;4975441;28;20395;-82
2022/08/06 10:17:06;;;;;;;0.30;0.30;;;;;;;21.39;45.63;102787.69;4974177;28;20086;-83
2022/08/06 10:19:31;;;;;;;0.52;0.30;;;;;;;21.63;45.30;102779.97;4974696;28;20475;-83
2022/08/06 10:22:04;;;;;;;0.33;0.33;;;;;;;21.84;42.88;102774.00;4973888;28;20037;-83
2022/08/06 10:24:31;;;;;;;1.10;0.82;;;;;;;21.71;44.13;102781.47;4972936;28;20491;-84
2022/08/06 10:26:57;;;;;;;0.60;0.60;;;;;;;21.55;41.70;102775.78;4973208;28;20022;-84
2022/08/06 10:29:25;;;;;;;2.53;1.05;;;;;;;21.46;42.53;102770.75;4973215;28;20730;-84
2022/08/06 10:31:53;;;;;;;1.42;0.43;;;;;;;21.32;41.19;102768.53;4972554;28;20030;-85
2022/08/06 10:34:30;;;;;;;0.95;0.55;;;;;;;21.01;41.72;102766.81;4973307;28;20050;-84
2022/08/06 10:36:59;;;;;;;1.40;0.70;;;;;;;20.53;42.83;102770.75;4973724;28;20035;-85
2022/08/06 10:39:27;;;;;;;0.77;0.50;;;;;;;20.49;40.86;102767.28;4973871;28;20038;-84
2022/08/06 10:41:56;;;;;;;1.52;0.73;;;;;;;20.46;42.98;102764.75;4974638;28;20050;-84
2022/08/06 10:44:26;;;;;;;0.40;0.40;;;;;;;20.43;45.00;102761.34;4974596;28;20026;-84
2022/08/06 10:46:52;;;;;;;1.13;0.45;;;;;;;20.68;44.01;102761.53;4973986;28;20023;-84
2022/08/06 10:49:20;;;;;;;0.32;0.22;;;;;;;21.06;44.20;102756.13;4974856;28;20487;-85
2022/08/06 10:51:47;;;;;;;0.30;0.30;;;;;;;21.39;44.45;102751.56;4974041;28;20551;-80
2022/08/06 10:54:14;;;;;;;1.35;0.60;;;;;;;21.74;41.12;102748.78;4974399;28;20110;-85
2022/08/06 10:56:40;;;;;;;1.20;0.50;;;;;;;21.65;43.90;102755.22;4975527;28;20546;-87
2022/08/06 10:59:06;;;;;;;0.45;0.30;;;;;;;21.48;41.84;102752.22;4974105;28;20045;-86
2022/08/06 11:02:00;;;;;;;0.65;0.30;;;;;;;21.19;42.03;102756.59;4974903;28;20073;-87
2022/08/06 11:04:58;;;;;;;1.35;0.43;;;;;;;21.25;41.76;102752.00;4974488;28;20471;-85
2022/08/06 11:07:41;;;;;;;0.50;0.28;;;;;;;21.58;41.37;102748.38;4973850;28;20105;-87
2022/08/06 11:10:29;;;;;;;0.40;0.40;;;;;;;21.94;41.61;102744.63;4975211;28;20460;-90
2022/08/06 11:13:13;;;;;;;0.22;0.22;;;;;;;22.29;40.66;102748.69;4973372;28;20046;-85
2022/08/06 11:15:40;;;;;;;0.57;0.30;;;;;;;22.55;41.37;102748.75;4974961;28;20023;-87
2022/08/06 11:18:07;;;;;;;0.43;0.40;;;;;;;22.83;42.85;102743.31;4974323;28;20101;-86
2022/08/06 11:20:33;;;;;;;0.70;0.40;;;;;;;22.98;38.40;102740.06;4973596;28;20035;-86
2022/08/06 11:22:59;;;;;;;0.20;0.20;;;;;;;23.03;40.33;102736.38;4974162;28;20404;-86
2022/08/06 11:25:45;;;;;;;;;;;;;;;23.23;36.80;102735.66;4974796;28;20023;-87
2022/08/06 11:28:14;;;;;;;;;;;;;;;23.24;37.28;102740.88;4973851;28;19918;-89
2022/08/06 11:30:51;;;;;;;1.08;0.57;;;;;;;23.25;39.61;102737.31;4974207;28;20278;-86
2022/08/06 11:33:21;;;;;;;1.33;0.50;;;;;;;22.95;37.00;102740.22;4974024;28;20483;-86
2022/08/06 11:35:51;;;;;;;0.77;0.55;;;;;;;22.81;38.40;102735.41;4973623;28;20073;-87
2022/08/06 11:38:42;;;;;;;0.52;0.30;;;;;;;22.96;39.38;102734.00;4974414;28;20029;-86
2022/08/06 11:41:10;;;;;;;0.47;0.28;;;;;;;23.26;40.28;102732.88;4973161;28;20456;-87
2022/08/06 11:43:53;;;;;;;0.20;0.20;;;;;;;23.48;39.38;102727.59;4974201;28;20106;-79